Time;durP1;ratioP1;P1;durP2;ratioP2;P2;SDS_P1;SDS_P2;PMS_P1;PMS_P2;Temp;Humidity;BMP_temperature;BMP_pressure;BME280_temperature;BME280_humidity;BME280_pressure;Samples;Min_cycle;Max_cycle;Signal;HPM_P1;HPM_P2
2023/03/11 00:02:13;;;;;;;3.65;0.22;;;9.00;96.50;;;;;;5016752;28;20026;-73
2023/03/11 00:04:39;;;;;;;4.78;0.50;;;8.90;96.50;;;;;;5017440;28;20040;-73
2023/03/11 00:07:06;;;;;;;5.97;0.22;;;8.90;96.40;;;;;;5018216;28;20105;-74
2023/03/11 00:09:33;;;;;;;0.85;0.17;;;8.90;96.30;;;;;;5020532;28;20389;-73
2023/03/11 00:11:58;;;;;;;1.92;0.22;;;8.90;96.20;;;;;;5022150;28;20461;-73
2023/03/11 00:14:24;;;;;;;1.40;0.30;;;8.90;96.30;;;;;;5019651;28;20022;-73
2023/03/11 00:16:50;;;;;;;1.05;0.30;;;8.80;96.40;;;;;;5021931;28;20065;-73
2023/03/11 00:19:15;;;;;;;3.22;0.25;;;8.80;96.60;;;;;;5020879;28;20414;-73
2023/03/11 00:21:41;;;;;;;2.05;0.30;;;8.80;96.70;;;;;;5020220;28;20442;-73
2023/03/11 00:24:07;;;;;;;2.50;0.28;;;8.80;96.80;;;;;;5020871;28;20033;-73
2023/03/11 00:26:32;;;;;;;3.17;0.22;;;8.70;97.00;;;;;;5018772;28;20107;-73
2023/03/11 00:28:58;;;;;;;2.58;0.50;;;8.70;97.40;;;;;;5019700;28;20025;-73
2023/03/11 00:31:25;;;;;;;4.63;0.57;;;8.70;97.50;;;;;;5020224;28;20054;-73
2023/03/11 00:33:52;;;;;;;2.47;0.40;;;8.70;98.20;;;;;;5020393;28;20109;-73
2023/03/11 00:36:24;;;;;;;3.22;0.60;;;8.70;99.90;;;;;;5019087;28;20469;-75
2023/03/11 00:38:50;;;;;;;6.35;0.93;;;8.60;99.90;;;;;;5018710;28;20030;-74
2023/03/11 00:41:16;;;;;;;1.58;0.25;;;7.90;99.90;;;;;;5016885;28;20384;-74
2023/03/11 00:43:42;;;;;;;3.78;0.55;;;7.50;99.90;;;;;;5016824;28;20021;-73
2023/03/11 00:46:08;;;;;;;2.20;0.57;;;7.30;99.90;;;;;;5015081;28;20080;-73
2023/03/11 00:48:34;;;;;;;5.50;0.50;;;7.20;99.90;;;;;;5016511;28;20081;-73
2023/03/11 00:50:59;;;;;;;2.78;0.52;;;7.10;99.90;;;;;;5018251;28;20018;-72
2023/03/11 00:53:25;;;;;;;1.90;0.25;;;7.10;99.90;;;;;;5018953;28;20030;-72
2023/03/11 00:55:51;;;;;;;2.90;0.45;;;7.00;99.90;;;;;;5017869;28;20040;-72
2023/03/11 00:58:17;;;;;;;1.13;0.40;;;7.00;99.90;;;;;;5018870;28;20067;-73
2023/03/11 01:00:42;;;;;;;5.03;1.15;;;7.00;99.90;;;;;;5016483;28;20025;-72
2023/03/11 01:03:08;;;;;;;1.90;0.40;;;7.00;99.90;;;;;;5017926;28;20026;-73
2023/03/11 01:05:34;;;;;;;1.95;0.47;;;7.00;99.90;;;;;;5016698;28;20462;-73
2023/03/11 01:08:00;;;;;;;2.70;0.88;;;7.00;99.90;;;;;;5016636;28;20089;-72
2023/03/11 01:10:29;;;;;;;2.25;0.50;;;7.10;99.90;;;;;;5017964;28;20022;-73
2023/03/11 01:12:54;;;;;;;1.55;0.43;;;7.10;99.90;;;;;;5017936;28;20032;-73
2023/03/11 01:15:24;;;;;;;1.02;0.50;;;7.10;99.90;;;;;;5016103;28;20030;-73
2023/03/11 01:17:50;;;;;;;0.98;0.30;;;7.20;99.90;;;;;;5016868;28;20060;-73
2023/03/11 01:20:16;;;;;;;0.88;0.30;;;7.20;99.90;;;;;;5016385;28;20026;-73
2023/03/11 01:22:42;;;;;;;2.08;0.50;;;7.30;99.90;;;;;;5016149;28;20382;-73
2023/03/11 01:25:11;;;;;;;0.30;0.30;;;7.20;99.90;;;;;;5016076;28;20030;-73
2023/03/11 01:27:37;;;;;;;2.78;0.35;;;7.30;99.90;;;;;;5017879;28;20053;-72
2023/03/11 01:30:03;;;;;;;2.55;0.70;;;7.30;99.90;;;;;;5018059;28;20033;-73
2023/03/11 01:32:29;;;;;;;0.68;0.28;;;7.30;99.90;;;;;;5017309;28;20125;-72
2023/03/11 01:34:55;;;;;;;1.58;0.30;;;7.30;99.90;;;;;;5018072;28;20049;-73
2023/03/11 01:37:20;;;;;;;1.13;0.35;;;7.30;99.90;;;;;;5017329;28;20394;-73
2023/03/11 01:39:46;;;;;;;2.30;0.40;;;7.30;99.90;;;;;;5016307;28;20033;-73
2023/03/11 01:42:12;;;;;;;0.50;0.30;;;7.30;99.90;;;;;;5017078;28;20026;-72
2023/03/11 01:44:37;;;;;;;1.02;0.40;;;7.30;99.90;;;;;;5016608;28;20105;-72
2023/03/11 01:47:03;;;;;;;0.45;0.30;;;7.20;99.90;;;;;;5014441;28;20034;-73
2023/03/11 01:49:29;;;;;;;1.08;0.30;;;7.20;99.90;;;;;;5014981;28;20034;-73
2023/03/11 01:51:59;;;;;;;1.23;0.70;;;7.20;99.90;;;;;;5016273;28;20038;-69
2023/03/11 01:54:29;;;;;;;0.47;0.30;;;7.20;99.90;;;;;;5013944;28;20457;-70
2023/03/11 01:56:55;;;;;;;0.30;0.28;;;7.30;99.90;;;;;;5015081;28;20026;-70
2023/03/11 01:59:29;;;;;;;0.20;0.20;;;7.30;96.70;;;;;;5014007;28;20424;-70
2023/03/11 02:02:05;;;;;;;0.15;0.15;;;7.20;95.80;;;;;;5013899;28;20029;-70
2023/03/11 02:04:33;;;;;;;8.50;0.65;;;7.10;95.10;;;;;;5015487;28;20462;-71
2023/03/11 02:07:00;;;;;;;0.60;0.27;;;7.00;91.60;;;;;;5014901;28;20034;-71
2023/03/11 02:09:25;;;;;;;0.20;0.13;;;6.80;87.90;;;;;;5013652;28;20099;-72
2023/03/11 02:11:52;;;;;;;2.22;0.20;;;6.70;86.50;;;;;;5015215;28;20423;-72
2023/03/11 02:14:19;;;;;;;1.85;0.20;;;6.60;85.50;;;;;;5013565;28;20029;-71
2023/03/11 02:16:44;;;;;;;0.90;0.20;;;6.40;83.90;;;;;;5015130;28;20065;-72
2023/03/11 02:19:33;;;;;;;0.30;0.30;;;6.30;84.00;;;;;;5014797;28;20026;-72
2023/03/11 02:22:00;;;;;;;0.15;0.15;;;6.30;84.80;;;;;;5013212;28;20030;-73
2023/03/11 02:24:38;;;;;;;0.43;0.20;;;6.10;85.70;;;;;;5013367;28;20492;-72
2023/03/11 02:27:12;;;;;;;0.30;0.20;;;6.00;86.60;;;;;;5014367;28;20037;-73
2023/03/11 02:29:40;;;;;;;0.35;0.20;;;5.90;86.80;;;;;;5014359;28;20494;-72
2023/03/11 02:32:08;;;;;;;0.20;0.20;;;5.90;87.40;;;;;;5014965;28;20084;-72
2023/03/11 02:34:37;;;;;;;4.28;0.32;;;5.80;88.10;;;;;;5014479;28;20097;-72
2023/03/11 02:37:05;;;;;;;0.50;0.22;;;5.70;87.40;;;;;;5012981;28;20030;-71
2023/03/11 02:39:37;;;;;;;4.70;0.30;;;5.70;87.00;;;;;;5014227;28;20438;-72
2023/03/11 02:42:17;;;;;;;0.60;0.32;;;5.70;87.30;;;;;;5014545;28;20053;-72
2023/03/11 02:44:46;;;;;;;0.50;0.40;;;5.60;86.90;;;;;;5013201;28;20029;-72
2023/03/11 02:47:12;;;;;;;0.73;0.45;;;5.60;85.20;;;;;;5013180;28;20104;-71
2023/03/11 02:49:38;;;;;;;0.25;0.25;;;5.60;84.20;;;;;;5012575;28;20474;-71
2023/03/11 02:52:04;;;;;;;0.32;0.32;;;5.50;84.80;;;;;;5012775;28;20028;-72
2023/03/11 02:54:30;;;;;;;0.32;0.30;;;5.50;83.60;;;;;;5013341;28;20080;-72
2023/03/11 02:56:56;;;;;;;0.30;0.30;;;5.50;83.30;;;;;;5014289;28;20034;-70
2023/03/11 02:59:21;;;;;;;0.40;0.35;;;5.50;82.20;;;;;;5013910;28;20029;-70
2023/03/11 03:01:47;;;;;;;0.75;0.38;;;5.50;82.80;;;;;;5014802;28;20026;-70
2023/03/11 03:04:13;;;;;;;0.50;0.40;;;5.40;82.80;;;;;;5014415;28;20088;-70
2023/03/11 03:06:38;;;;;;;0.45;0.30;;;5.40;83.10;;;;;;5014043;28;20186;-70
2023/03/11 03:09:04;;;;;;;0.47;0.40;;;5.30;83.80;;;;;;5013094;28;20026;-70
2023/03/11 03:11:30;;;;;;;1.77;0.45;;;5.20;84.50;;;;;;5012631;28;20044;-70
2023/03/11 03:13:55;;;;;;;2.08;0.22;;;5.20;85.30;;;;;;5014439;28;20029;-70
2023/03/11 03:16:21;;;;;;;0.40;0.38;;;5.20;85.90;;;;;;5014234;28;20038;-70
2023/03/11 03:18:47;;;;;;;2.10;0.40;;;5.20;85.90;;;;;;5013914;28;20537;-70
2023/03/11 03:21:12;;;;;;;0.80;0.55;;;5.20;86.60;;;;;;5014189;28;20044;-70
2023/03/11 03:23:38;;;;;;;1.13;0.50;;;5.20;87.00;;;;;;5014238;28;20097;-71
2023/03/11 03:26:05;;;;;;;2.08;0.38;;;5.10;87.10;;;;;;5014318;28;20026;-70
2023/03/11 03:28:31;;;;;;;0.60;0.50;;;5.10;86.90;;;;;;5013330;28;20463;-70
2023/03/11 03:31:04;;;;;;;1.77;0.30;;;5.10;87.00;;;;;;5014571;28;20054;-70
2023/03/11 03:33:30;;;;;;;0.47;0.43;;;5.10;86.40;;;;;;5014355;28;20030;-70
2023/03/11 03:35:56;;;;;;;3.10;0.40;;;5.10;86.00;;;;;;5014633;28;20072;-70
2023/03/11 03:38:21;;;;;;;0.55;0.38;;;5.10;85.90;;;;;;5012881;28;20022;-70
2023/03/11 03:40:47;;;;;;;0.70;0.45;;;5.10;85.60;;;;;;5014214;28;20468;-70
2023/03/11 03:43:13;;;;;;;1.00;0.40;;;5.10;85.40;;;;;;5014205;28;20037;-70
2023/03/11 03:45:38;;;;;;;1.08;0.32;;;5.00;85.30;;;;;;5013906;28;20026;-70
2023/03/11 03:48:05;;;;;;;0.77;0.40;;;5.00;83.60;;;;;;5012542;28;20510;-70
2023/03/11 03:50:31;;;;;;;0.25;0.20;;;5.00;83.30;;;;;;5012540;28;20030;-70
2023/03/11 03:52:56;;;;;;;2.85;0.22;;;5.00;83.30;;;;;;5012541;28;20026;-70
2023/03/11 03:55:22;;;;;;;0.20;0.20;;;4.90;82.90;;;;;;5014106;28;20038;-70
2023/03/11 03:57:48;;;;;;;0.93;0.40;;;4.80;82.60;;;;;;5013923;28;20030;-70
2023/03/11 04:00:14;;;;;;;0.20;0.20;;;4.80;82.80;;;;;;5014832;28;20026;-70
2023/03/11 04:02:40;;;;;;;0.50;0.50;;;4.80;82.20;;;;;;5016488;28;20053;-70
2023/03/11 04:05:06;;;;;;;0.20;0.20;;;4.70;82.60;;;;;;5016075;28;20037;-70
2023/03/11 04:07:34;;;;;;;0.40;0.30;;;4.70;82.30;;;;;;5015954;28;20373;-70
2023/03/11 04:10:00;;;;;;;0.38;0.38;;;4.60;81.60;;;;;;5016340;28;20034;-70
2023/03/11 04:12:26;;;;;;;0.57;0.20;;;4.60;80.50;;;;;;5017445;28;20029;-70
2023/03/11 04:14:52;;;;;;;0.20;0.20;;;4.50;79.20;;;;;;5018065;28;20457;-70
2023/03/11 04:17:18;;;;;;;1.20;0.20;;;4.50;78.00;;;;;;5018681;28;20037;-71
2023/03/11 04:19:43;;;;;;;0.20;0.20;;;4.40;76.90;;;;;;5017188;28;20022;-70
2023/03/11 04:22:09;;;;;;;2.75;0.28;;;4.40;77.00;;;;;;5018511;28;20056;-70
2023/03/11 04:24:35;;;;;;;0.13;0.13;;;4.30;77.60;;;;;;5017561;28;20386;-70
2023/03/11 04:27:01;;;;;;;0.13;0.13;;;4.20;76.70;;;;;;5016938;28;20033;-70
2023/03/11 04:29:27;;;;;;;3.30;0.10;;;4.20;76.30;;;;;;5015933;28;20484;-73
2023/03/11 04:31:52;;;;;;;0.30;0.20;;;4.20;75.80;;;;;;5017246;28;20129;-74
2023/03/11 04:34:18;;;;;;;0.50;0.17;;;4.10;75.50;;;;;;5017294;28;20037;-75
2023/03/11 04:36:44;;;;;;;0.45;0.45;;;4.10;74.80;;;;;;5016966;28;20122;-74
2023/03/11 04:39:09;;;;;;;0.57;0.30;;;4.10;74.50;;;;;;5017170;28;20132;-75
2023/03/11 04:41:36;;;;;;;1.58;0.20;;;4.10;74.20;;;;;;5015619;28;20026;-74
2023/03/11 04:44:02;;;;;;;0.30;0.10;;;4.00;73.80;;;;;;5016592;28;20060;-74
2023/03/11 04:46:27;;;;;;;1.10;0.10;;;4.00;74.20;;;;;;5017095;28;20069;-74
2023/03/11 04:48:53;;;;;;;0.13;0.10;;;4.00;74.10;;;;;;5016113;28;20065;-74
2023/03/11 04:51:37;;;;;;;10.52;0.57;;;3.90;74.10;;;;;;5017328;28;20486;-75
2023/03/11 04:54:03;;;;;;;0.40;0.22;;;3.90;74.40;;;;;;5017037;28;20072;-74
2023/03/11 04:56:29;;;;;;;0.20;0.17;;;3.80;74.30;;;;;;5016848;28;20406;-74
2023/03/11 04:58:54;;;;;;;1.27;0.10;;;3.80;74.20;;;;;;5015097;28;20084;-74
2023/03/11 05:01:20;;;;;;;0.15;0.10;;;3.80;74.40;;;;;;5016355;28;20428;-74
2023/03/11 05:03:46;;;;;;;0.32;0.20;;;3.80;74.50;;;;;;5015271;28;20026;-75
2023/03/11 05:06:11;;;;;;;2.30;0.38;;;3.70;74.70;;;;;;5015165;28;20092;-74
2023/03/11 05:08:37;;;;;;;4.38;0.30;;;3.70;75.00;;;;;;5016734;28;20382;-74
2023/03/11 05:11:03;;;;;;;1.08;0.20;;;3.70;75.30;;;;;;5014480;28;20532;-74
2023/03/11 05:13:29;;;;;;;0.63;0.10;;;3.70;75.30;;;;;;5015619;28;20030;-74
2023/03/11 05:15:54;;;;;;;0.65;0.10;;;3.70;75.60;;;;;;5016250;28;20447;-74
2023/03/11 05:18:20;;;;;;;0.40;0.17;;;3.60;75.60;;;;;;5016331;28;20497;-75
2023/03/11 05:20:46;;;;;;;0.20;0.17;;;3.60;75.70;;;;;;5015986;28;20037;-75
2023/03/11 05:23:12;;;;;;;0.55;0.10;;;3.60;75.90;;;;;;5016263;28;20041;-75
2023/03/11 05:25:37;;;;;;;0.20;0.20;;;3.60;75.50;;;;;;5014731;28;20022;-75
2023/03/11 05:28:03;;;;;;;0.65;0.20;;;3.70;75.20;;;;;;5016123;28;20034;-75
2023/03/11 05:30:29;;;;;;;0.10;0.10;;;3.70;75.20;;;;;;5015599;28;20036;-74
2023/03/11 05:32:55;;;;;;;1.02;0.10;;;3.70;74.70;;;;;;5016050;28;20466;-75
2023/03/11 05:35:21;;;;;;;1.17;0.10;;;3.70;74.30;;;;;;5015770;28;20026;-75
2023/03/11 05:37:48;;;;;;;1.02;0.20;;;3.70;74.40;;;;;;5016043;28;20030;-75
2023/03/11 05:40:15;;;;;;;2.08;0.10;;;3.80;74.30;;;;;;5015883;28;20021;-75
2023/03/11 05:42:40;;;;;;;0.28;0.10;;;3.80;74.00;;;;;;5014590;28;20036;-75
2023/03/11 05:45:07;;;;;;;0.32;0.15;;;3.80;73.80;;;;;;5015264;28;20022;-75
2023/03/11 05:47:34;;;;;;;2.80;0.57;;;3.90;74.00;;;;;;5013903;28;20026;-74
2023/03/11 05:49:59;;;;;;;0.20;0.20;;;3.90;74.10;;;;;;5015676;28;20537;-73
2023/03/11 05:52:25;;;;;;;0.57;0.13;;;3.90;74.40;;;;;;5015732;28;20057;-73
2023/03/11 05:54:51;;;;;;;0.20;0.20;;;3.90;74.30;;;;;;5015678;28;20030;-73
2023/03/11 05:57:18;;;;;;;0.20;0.20;;;3.90;74.70;;;;;;5015555;28;20084;-73
2023/03/11 05:59:44;;;;;;;0.25;0.20;;;3.90;74.60;;;;;;5015575;28;20018;-74
2023/03/11 06:02:09;;;;;;;0.10;0.10;;;4.00;75.00;;;;;;5015929;28;20508;-74
2023/03/11 06:04:35;;;;;;;0.20;0.20;;;4.00;75.10;;;;;;5014412;28;20252;-74
2023/03/11 06:07:01;;;;;;;0.45;0.28;;;4.00;75.20;;;;;;5015379;28;20045;-73
2023/03/11 06:09:27;;;;;;;0.65;0.30;;;4.10;75.20;;;;;;5014254;28;20061;-72
2023/03/11 06:11:53;;;;;;;0.30;0.30;;;4.10;79.40;;;;;;5013814;28;20108;-71
2023/03/11 06:14:18;;;;;;;0.28;0.28;;;4.10;75.40;;;;;;5014618;28;20026;-69
2023/03/11 06:16:44;;;;;;;0.57;0.28;;;4.20;75.80;;;;;;5014938;28;20470;-69
2023/03/11 06:19:10;;;;;;;1.13;0.50;;;4.20;75.80;;;;;;5014712;28;20026;-68
2023/03/11 06:21:35;;;;;;;1.88;0.30;;;4.20;76.10;;;;;;5013289;28;20367;-71
2023/03/11 06:24:01;;;;;;;0.38;0.28;;;4.20;76.40;;;;;;5013954;28;20025;-71
2023/03/11 06:26:27;;;;;;;0.32;0.22;;;4.30;75.90;;;;;;5013686;28;20030;-72
2023/03/11 06:28:53;;;;;;;1.58;0.25;;;4.40;76.10;;;;;;5014912;28;20041;-72
2023/03/11 06:31:23;;;;;;;0.57;0.25;;;4.40;75.20;;;;;;5013638;28;20046;-69
2023/03/11 06:33:48;;;;;;;0.50;0.20;;;4.50;75.40;;;;;;5013468;28;20066;-70
2023/03/11 06:36:16;;;;;;;0.38;0.30;;;4.70;75.30;;;;;;5014699;28;20065;-70
2023/03/11 06:38:42;;;;;;;1.27;0.40;;;4.80;74.60;;;;;;5013139;28;20025;-71
2023/03/11 06:41:09;;;;;;;1.45;0.32;;;4.80;73.90;;;;;;5015003;28;20026;-72
2023/03/11 06:43:35;;;;;;;0.22;0.20;;;4.80;74.10;;;;;;5014800;28;20472;-71
2023/03/11 06:46:07;;;;;;;0.20;0.20;;;4.90;74.40;;;;;;5013471;28;20033;-70
2023/03/11 06:48:33;;;;;;;0.28;0.28;;;4.80;74.20;;;;;;5013523;28;20034;-70
2023/03/11 06:51:00;;;;;;;1.02;0.45;;;4.80;74.70;;;;;;5014644;28;20056;-70
2023/03/11 06:53:26;;;;;;;0.85;0.30;;;4.80;75.00;;;;;;5014546;28;20022;-70
2023/03/11 06:55:59;;;;;;;1.35;0.20;;;4.90;75.00;;;;;;5014630;28;20037;-70
2023/03/11 06:58:25;;;;;;;2.28;0.40;;;4.90;75.00;;;;;;5014700;28;20421;-71
2023/03/11 07:00:50;;;;;;;0.90;0.30;;;4.90;74.50;;;;;;5014859;28;20173;-71
2023/03/11 07:03:16;;;;;;;0.50;0.20;;;4.90;74.60;;;;;;5014649;28;20463;-71
2023/03/11 07:05:42;;;;;;;1.15;0.30;;;4.90;74.20;;;;;;5013558;28;20026;-69
2023/03/11 07:08:07;;;;;;;0.28;0.28;;;4.90;73.90;;;;;;5013383;28;20386;-69
2023/03/11 07:10:34;;;;;;;0.40;0.40;;;4.90;73.50;;;;;;5013209;28;20517;-71
2023/03/11 07:13:00;;;;;;;7.03;1.40;;;5.10;73.20;;;;;;5014622;28;20458;-72
2023/03/11 07:15:25;;;;;;;1.75;0.20;;;5.30;72.90;;;;;;5014036;28;20080;-70
2023/03/11 07:17:51;;;;;;;0.65;0.40;;;5.50;72.40;;;;;;5014008;28;20081;-69
2023/03/11 07:20:17;;;;;;;0.20;0.20;;;5.50;72.60;;;;;;5014721;28;20030;-74
2023/03/11 07:22:43;;;;;;;0.20;0.20;;;5.60;71.40;;;;;;5014185;28;20026;-70
2023/03/11 07:25:09;;;;;;;0.20;0.20;;;5.60;72.00;;;;;;5013201;28;20041;-69
2023/03/11 07:27:34;;;;;;;2.33;0.30;;;5.70;71.40;;;;;;5014198;28;20038;-68
2023/03/11 07:30:01;;;;;;;3.25;0.40;;;5.60;72.00;;;;;;5032367;28;20035;-67
2023/03/11 07:32:27;;;;;;;0.45;0.30;;;5.90;72.00;;;;;;5033310;28;20421;-68
2023/03/11 07:34:52;;;;;;;0.13;0.13;;;5.80;71.10;;;;;;5033535;28;20029;-67
2023/03/11 07:37:18;;;;;;;0.98;0.52;;;5.90;71.00;;;;;;5037355;28;20036;-70
2023/03/11 07:39:44;;;;;;;0.40;0.40;;;5.80;70.90;;;;;;5036244;28;20022;-67
2023/03/11 07:42:09;;;;;;;0.52;0.30;;;6.00;71.40;;;;;;5025540;28;20030;-67
2023/03/11 07:44:35;;;;;;;0.40;0.40;;;6.10;70.80;;;;;;5020428;28;20051;-67
2023/03/11 07:47:03;;;;;;;0.95;0.55;;;6.30;70.00;;;;;;5019902;28;20021;-67
2023/03/11 07:49:33;;;;;;;0.35;0.30;;;6.30;69.20;;;;;;5028372;28;20333;-67
2023/03/11 07:51:58;;;;;;;1.35;0.30;;;6.20;70.00;;;;;;5036114;28;20021;-68
2023/03/11 07:54:24;;;;;;;0.55;0.30;;;6.20;69.20;;;;;;5035878;28;20375;-68
2023/03/11 07:56:50;;;;;;;0.50;0.50;;;6.30;69.70;;;;;;5025521;28;20036;-67
2023/03/11 07:59:15;;;;;;;0.32;0.32;;;6.40;69.70;;;;;;5017086;28;20022;-67
2023/03/11 08:01:45;;;;;;;0.43;0.43;;;6.50;69.20;;;;;;5016175;28;20109;-67
2023/03/11 08:04:12;;;;;;;1.65;0.30;;;6.50;69.30;;;;;;5017250;28;20045;-68
2023/03/11 08:06:40;;;;;;;1.98;0.35;;;6.70;69.30;;;;;;5015606;28;20034;-68
2023/03/11 08:09:08;;;;;;;0.52;0.40;;;6.90;68.20;;;;;;5022437;28;20049;-68
2023/03/11 08:11:34;;;;;;;0.40;0.40;;;7.10;68.20;;;;;;5036312;28;20032;-68
2023/03/11 08:14:05;;;;;;;0.35;0.32;;;7.30;67.50;;;;;;5037858;28;20435;-68
2023/03/11 08:16:31;;;;;;;0.68;0.20;;;7.40;66.60;;;;;;5039534;28;20025;-68
2023/03/11 08:18:57;;;;;;;0.40;0.40;;;7.60;65.70;;;;;;5039071;28;20032;-67
2023/03/11 08:21:28;;;;;;;0.50;0.50;;;7.20;64.80;;;;;;5037168;28;20029;-68
2023/03/11 08:23:57;;;;;;;0.40;0.38;;;7.30;66.00;;;;;;5037665;28;20025;-68
2023/03/11 08:26:23;;;;;;;0.75;0.32;;;7.40;66.20;;;;;;5037465;28;20025;-68
2023/03/11 08:28:49;;;;;;;2.08;0.50;;;7.30;65.40;;;;;;5037263;28;20075;-67
2023/03/11 08:31:20;;;;;;;2.83;0.30;;;7.60;65.80;;;;;;5035755;28;20531;-68
2023/03/11 08:33:51;;;;;;;1.05;0.45;;;7.50;64.80;;;;;;5037029;28;20037;-67
2023/03/11 08:36:17;;;;;;;0.45;0.40;;;7.60;63.90;;;;;;5036768;28;20354;-67
2023/03/11 08:38:43;;;;;;;0.73;0.47;;;7.50;64.50;;;;;;5036527;28;20083;-68
2023/03/11 08:41:08;;;;;;;0.30;0.30;;;7.70;63.80;;;;;;5036536;28;20025;-70
2023/03/11 08:43:34;;;;;;;3.40;0.43;;;7.70;63.70;;;;;;5035961;28;20484;-69
2023/03/11 08:46:01;;;;;;;1.35;0.30;;;7.80;63.00;;;;;;5036576;28;20117;-72
2023/03/11 08:48:27;;;;;;;0.70;0.40;;;7.80;61.60;;;;;;5037221;28;20057;-70
2023/03/11 08:50:53;;;;;;;0.20;0.20;;;8.20;61.60;;;;;;5036874;28;20045;-70
2023/03/11 08:53:19;;;;;;;0.55;0.20;;;8.50;59.00;;;;;;5037029;28;20492;-70
2023/03/11 08:55:44;;;;;;;1.00;0.30;;;8.70;57.70;;;;;;5037250;28;20026;-69
2023/03/11 08:58:11;;;;;;;0.20;0.20;;;8.80;55.20;;;;;;5037081;28;20457;-69
2023/03/11 09:00:36;;;;;;;1.38;0.20;;;8.40;55.30;;;;;;5036192;28;20021;-69
2023/03/11 09:03:02;;;;;;;0.17;0.15;;;8.10;55.80;;;;;;5037167;28;20037;-70
2023/03/11 09:05:27;;;;;;;0.32;0.10;;;7.80;56.30;;;;;;5038577;28;20030;-71
2023/03/11 09:07:53;;;;;;;0.90;0.15;;;7.40;56.50;;;;;;5040906;28;20104;-70
2023/03/11 09:10:19;;;;;;;0.77;0.30;;;7.00;57.80;;;;;;5040641;28;20149;-70
2023/03/11 09:12:44;;;;;;;3.25;0.25;;;7.40;57.50;;;;;;5037866;28;20026;-69
2023/03/11 09:15:10;;;;;;;0.65;0.20;;;7.20;57.10;;;;;;5036890;28;20041;-69
2023/03/11 09:17:36;;;;;;;0.90;0.20;;;6.80;57.70;;;;;;5036302;28;20377;-69
2023/03/11 09:20:03;;;;;;;0.30;0.15;;;6.60;58.60;;;;;;5035644;28;20063;-69
2023/03/11 09:22:28;;;;;;;0.40;0.25;;;6.50;59.10;;;;;;5036338;28;20064;-69
2023/03/11 09:24:55;;;;;;;0.20;0.15;;;6.50;59.00;;;;;;5035176;28;20069;-69
2023/03/11 09:27:21;;;;;;;0.28;0.20;;;6.40;59.20;;;;;;5035676;28;20044;-70
2023/03/11 09:29:47;;;;;;;0.88;0.20;;;6.50;59.20;;;;;;5034252;28;20470;-71
2023/03/11 09:32:13;;;;;;;1.48;0.32;;;6.50;59.20;;;;;;5034605;28;20050;-70
2023/03/11 09:34:39;;;;;;;1.70;0.40;;;6.40;59.00;;;;;;5034115;28;20052;-70
2023/03/11 09:37:05;;;;;;;0.40;0.30;;;6.40;59.20;;;;;;5034095;28;20120;-70
2023/03/11 09:39:30;;;;;;;0.32;0.20;;;6.50;59.20;;;;;;5035398;28;20172;-70
2023/03/11 09:42:29;;;;;;;1.05;0.30;;;6.50;59.40;;;;;;5036415;28;20488;-70
2023/03/11 09:45:07;;;;;;;;;;;6.70;59.10;;;;;;5038097;28;20067;-69
2023/03/11 09:47:37;;;;;;;0.10;0.10;;;6.80;58.60;;;;;;5036846;28;19916;-70
2023/03/11 09:50:22;;;;;;;0.47;0.15;;;6.80;59.20;;;;;;5036595;28;20057;-70
2023/03/11 09:53:09;;;;;;;0.32;0.20;;;6.80;59.30;;;;;;5037173;28;20030;-70
2023/03/11 09:55:48;;;;;;;0.40;0.17;;;6.60;59.20;;;;;;5035721;28;20484;-70
2023/03/11 09:58:28;;;;;;;0.45;0.20;;;6.50;60.10;;;;;;5035221;28;20032;-70
2023/03/11 10:00:54;;;;;;;0.17;0.13;;;6.30;60.10;;;;;;5034977;28;20029;-70
2023/03/11 10:03:33;;;;;;;1.55;0.50;;;6.00;60.90;;;;;;5033346;28;20032;-70
2023/03/11 10:06:27;;;;;;;0.45;0.38;;;5.90;61.20;;;;;;5034840;28;20031;-69
2023/03/11 10:09:11;;;;;;;0.43;0.10;;;5.80;61.40;;;;;;5031242;28;20033;-70
2023/03/11 10:12:06;;;;;;;0.75;0.10;;;5.80;61.90;;;;;;5033729;28;20030;-70
2023/03/11 10:14:44;;;;;;;0.17;0.10;;;5.90;62.40;;;;;;5035379;28;20025;-69
2023/03/11 10:17:50;;;;;;;0.28;0.10;;;5.80;62.50;;;;;;5035241;28;20546;-70
2023/03/11 10:20:33;;;;;;;0.20;0.10;;;5.80;62.60;;;;;;4957266;28;20026;-69
2023/03/11 10:23:20;;;;;;;0.30;0.10;;;5.70;63.80;;;;;;5024934;28;20040;-70
2023/03/11 10:26:04;;;;;;;0.03;0.00;;;5.60;64.50;;;;;;5033993;28;20026;-70
2023/03/11 10:28:45;;;;;;;1.10;0.30;;;5.50;65.40;;;;;;5034228;28;20083;-70
2023/03/11 10:31:49;;;;;;;1.75;0.35;;;5.50;66.20;;;;;;5034380;28;20076;-70
2023/03/11 10:34:31;;;;;;;0.20;0.17;;;5.50;66.70;;;;;;4973347;28;20034;-69
2023/03/11 10:37:23;;;;;;;0.80;0.30;;;5.40;66.80;;;;;;4973004;28;20030;-69
2023/03/11 10:39:50;;;;;;;1.60;0.10;;;5.30;67.40;;;;;;4973141;28;20046;-70
2023/03/11 10:42:21;;;;;;;0.20;0.10;;;5.10;67.80;;;;;;4973741;28;20478;-70
2023/03/11 10:44:47;;;;;;;0.68;0.20;;;5.10;67.80;;;;;;4973598;28;20066;-69
2023/03/11 10:47:17;;;;;;;0.00;0.00;;;5.20;68.20;;;;;;4973149;28;20031;-69
2023/03/11 10:49:43;;;;;;;1.67;0.10;;;5.10;67.50;;;;;;4973671;28;20034;-69
2023/03/11 10:52:09;;;;;;;0.93;0.22;;;5.10;67.80;;;;;;4973981;28;20490;-69
2023/03/11 10:54:46;;;;;;;0.38;0.17;;;5.10;66.80;;;;;;4973788;28;20035;-69
2023/03/11 10:57:18;;;;;;;2.88;0.08;;;5.10;65.90;;;;;;4973184;28;20035;-68
2023/03/11 10:59:56;;;;;;;0.20;0.10;;;5.20;65.80;;;;;;4972746;28;20043;-69
2023/03/11 11:02:25;;;;;;;0.55;0.17;;;5.30;64.80;;;;;;4972867;28;20027;-69
2023/03/11 11:05:26;;;;;;;0.40;0.40;;;5.30;64.20;;;;;;4999834;28;20044;-69
2023/03/11 11:08:03;;;;;;;2.45;0.10;;;5.40;63.60;;;;;;5022912;28;20041;-69
2023/03/11 11:10:29;;;;;;;1.05;0.20;;;5.50;63.60;;;;;;5032741;28;20040;-69
2023/03/11 11:12:59;;;;;;;0.20;0.20;;;5.60;61.80;;;;;;5033497;28;20068;-69
2023/03/11 11:15:32;;;;;;;0.57;0.20;;;5.70;61.50;;;;;;5033930;28;20026;-69
2023/03/11 11:18:15;;;;;;;0.25;0.17;;;6.40;60.70;;;;;;5033861;28;20025;-69
2023/03/11 11:20:54;;;;;;;0.43;0.20;;;7.30;58.20;;;;;;5033067;28;20036;-69
2023/03/11 11:23:30;;;;;;;0.25;0.10;;;7.30;56.70;;;;;;5034260;28;20477;-69
2023/03/11 11:26:03;;;;;;;0.30;0.20;;;7.00;57.10;;;;;;5034135;28;20128;-69
2023/03/11 11:28:31;;;;;;;1.15;0.10;;;6.80;56.10;;;;;;5033681;28;20026;-69
2023/03/11 11:30:58;;;;;;;0.85;0.20;;;6.70;58.00;;;;;;5032599;28;20489;-69
2023/03/11 11:33:26;;;;;;;0.68;0.20;;;6.50;58.50;;;;;;5034043;28;20109;-69
2023/03/11 11:35:55;;;;;;;0.38;0.25;;;6.50;59.10;;;;;;5034089;28;20053;-69
2023/03/11 11:38:23;;;;;;;0.30;0.10;;;6.50;58.00;;;;;;5033863;28;20034;-69
2023/03/11 11:40:51;;;;;;;2.53;0.30;;;6.40;58.30;;;;;;5032630;28;20472;-69
2023/03/11 11:43:20;;;;;;;0.43;0.13;;;6.50;59.00;;;;;;5033705;28;20032;-69
2023/03/11 11:45:53;;;;;;;0.10;0.10;;;6.80;59.60;;;;;;5032126;28;20048;-69
2023/03/11 11:48:34;;;;;;;5.75;0.30;;;7.50;58.10;;;;;;5032040;28;20033;-69
2023/03/11 11:51:07;;;;;;;0.80;0.30;;;7.10;57.80;;;;;;5033762;28;20055;-69
2023/03/11 11:53:58;;;;;;;0.30;0.20;;;7.10;58.30;;;;;;5031934;28;20041;-69
2023/03/11 11:56:24;;;;;;;0.50;0.10;;;6.90;59.00;;;;;;5033627;28;20049;-69
2023/03/11 11:58:53;;;;;;;0.88;0.10;;;6.50;59.90;;;;;;5032219;28;20068;-69
2023/03/11 12:01:33;;;;;;;0.75;0.22;;;6.30;61.20;;;;;;5032561;28;20128;-69
2023/03/11 12:04:29;;;;;;;1.88;0.65;;;6.10;62.10;;;;;;5032629;28;20061;-69
2023/03/11 12:07:10;;;;;;;0.52;0.20;;;6.00;62.00;;;;;;5032020;28;20541;-69
2023/03/11 12:10:08;;;;;;;0.52;0.22;;;6.00;63.00;;;;;;5033505;28;20069;-69
2023/03/11 12:13:04;;;;;;;1.40;0.10;;;6.00;63.70;;;;;;5032097;28;20025;-69
2023/03/11 12:15:40;;;;;;;0.95;0.20;;;5.90;64.20;;;;;;5032415;28;20052;-69
2023/03/11 12:18:23;;;;;;;1.88;0.30;;;5.90;64.40;;;;;;5033110;28;20492;-69
2023/03/11 12:20:54;;;;;;;0.20;0.20;;;5.90;64.50;;;;;;5033209;28;20021;-69
2023/03/11 12:23:35;;;;;;;0.20;0.10;;;5.90;64.00;;;;;;5033980;28;20037;-69
2023/03/11 12:26:13;;;;;;;0.10;0.10;;;5.90;64.10;;;;;;5036996;28;20489;-69
2023/03/11 12:28:41;;;;;;;0.45;0.20;;;6.10;64.90;;;;;;5035578;28;20045;-69
2023/03/11 12:31:09;;;;;;;0.15;0.15;;;6.00;63.90;;;;;;5036710;28;20054;-69
2023/03/11 12:33:37;;;;;;;0.55;0.30;;;6.00;64.60;;;;;;5036688;28;20048;-68
2023/03/11 12:36:05;;;;;;;0.60;0.20;;;5.90;65.30;;;;;;5037204;28;20040;-69
2023/03/11 12:38:34;;;;;;;0.20;0.10;;;5.80;65.20;;;;;;5037982;28;20032;-69
2023/03/11 12:41:15;;;;;;;0.05;0.05;;;5.80;65.30;;;;;;5037429;28;20212;-71
2023/03/11 12:43:40;;;;;;;0.65;0.30;;;5.60;64.90;;;;;;5037727;28;20076;-69
2023/03/11 12:46:07;;;;;;;0.95;0.40;;;5.50;65.60;;;;;;5036333;28;20033;-70
2023/03/11 12:48:45;;;;;;;1.45;0.13;;;5.50;65.90;;;;;;5037253;28;20117;-69
2023/03/11 12:51:26;;;;;;;0.55;0.20;;;5.70;65.60;;;;;;5036471;28;20555;-69
2023/03/11 12:53:55;;;;;;;0.95;0.30;;;5.80;63.90;;;;;;5035106;28;20036;-70
2023/03/11 12:56:41;;;;;;;3.10;0.20;;;5.70;63.80;;;;;;5036489;28;20033;-68
2023/03/11 12:59:37;;;;;;;0.17;0.10;;;5.70;64.40;;;;;;5038084;28;20029;-69
2023/03/11 13:02:08;;;;;;;0.20;0.10;;;5.80;64.10;;;;;;5038273;28;20026;-69
2023/03/11 13:05:09;;;;;;;0.50;0.22;;;5.70;63.90;;;;;;5035230;28;20128;-69
2023/03/11 13:07:56;;;;;;;0.65;0.13;;;5.70;64.50;;;;;;4975427;28;20038;-66
2023/03/11 13:10:41;;;;;;;0.35;0.10;;;5.60;64.40;;;;;;5029585;28;20384;-70